TUI56C EDDL-LPMA
Flight info
| Callsign | TUI56C |
|---|---|
| Flight time | N/A |
| Altitude | 34000 |
| Route | MODRU7Z MODRU Z717 MAS UM617 CIV/N0442F330 N872 MEDIL DCT KOVIN DCT NIDUV DCT KIHVI UN872 ERIGA UN741 AZFIC DCT GATMO DCT LOTEE DCT AGADO/N0445F350 DCT UBANI DCT TUNAV DCT TELMU DCT PECKY DCT LIDRO |
| Aircraft | B738/M-SDE2E3FGHIRWXY/LB1 |
Departure
| Time | 2026-05-05 14:17 |
|---|---|
| Airport | Düsseldorf Airport (EDDL) |
Arrival
| Time | N/A |
|---|---|
| Airport | Cristiano Ronaldo International Airport (LPMA) |
| Time | Latitude | Longitude | Altitude | Speed | Heading |
|---|---|---|---|---|---|
| 2026-05-05 13:47 | 51.27910 | 6.76242 | 129 ft | 0 kts | 58° |
| 2026-05-05 14:05 | 51.27903 | 6.76223 | 125 ft | 4 kts | 58° |
| 2026-05-05 14:05 | 51.27889 | 6.76186 | 124 ft | 4 kts | 58° |
| 2026-05-05 14:05 | 51.27878 | 6.76156 | 124 ft | 3 kts | 57° |
| 2026-05-05 14:06 | 51.27861 | 6.76136 | 123 ft | 4 kts | 17° |
| 2026-05-05 14:06 | 51.27849 | 6.76120 | 126 ft | 4 kts | 62° |
| 2026-05-05 14:06 | 51.27839 | 6.76080 | 126 ft | 4 kts | 77° |
| 2026-05-05 14:06 | 51.27834 | 6.76047 | 128 ft | 4 kts | 24° |
| 2026-05-05 14:07 | 51.27832 | 6.76045 | 128 ft | 0 kts | 2° |
| 2026-05-05 14:08 | 51.27833 | 6.76045 | 128 ft | 0 kts | 2° |
| 2026-05-05 14:09 | 51.27834 | 6.76044 | 126 ft | 2 kts | 352° |
| 2026-05-05 14:09 | 51.27844 | 6.75953 | 130 ft | 17 kts | 270° |
| 2026-05-05 14:10 | 51.27855 | 6.75817 | 129 ft | 0 kts | 281° |
| 2026-05-05 14:10 | 51.27868 | 6.75645 | 126 ft | 20 kts | 281° |
| 2026-05-05 14:10 | 51.27874 | 6.75616 | 123 ft | 5 kts | 301° |
| 2026-05-05 14:10 | 51.27944 | 6.75564 | 125 ft | 9 kts | 335° |
| 2026-05-05 14:11 | 51.27970 | 6.75545 | 126 ft | 1 kts | 336° |
| 2026-05-05 14:11 | 51.27986 | 6.75534 | 124 ft | 0 kts | 334° |
| 2026-05-05 14:14 | 51.28059 | 6.75503 | 121 ft | 19 kts | 2° |
| 2026-05-05 14:15 | 51.28135 | 6.75569 | 125 ft | 0 kts | 51° |
| 2026-05-05 14:16 | 51.28139 | 6.75578 | 126 ft | 11 kts | 51° |
| 2026-05-05 14:16 | 51.28356 | 6.76030 | 127 ft | 91 kts | 52° |
| 2026-05-05 14:16 | 51.28893 | 6.77144 | 140 ft | 159 kts | 52° |
| 2026-05-05 14:16 | 51.29633 | 6.78781 | 423 ft | 198 kts | 56° |
| 2026-05-05 14:17 | 51.30399 | 6.80687 | 1263 ft | 206 kts | 61° |
| 2026-05-05 14:17 | 51.31093 | 6.82701 | 2207 ft | 210 kts | 57° |
| 2026-05-05 14:17 | 51.32055 | 6.84713 | 2193 ft | 255 kts | 54° |
| 2026-05-05 14:17 | 51.33234 | 6.87262 | 1871 ft | 302 kts | 53° |
| 2026-05-05 14:18 | 51.34662 | 6.89712 | 2745 ft | 301 kts | 33° |
| 2026-05-05 14:18 | 51.36545 | 6.90921 | 4070 ft | 284 kts | 17° |
| 2026-05-05 14:18 | 51.38428 | 6.91546 | 5282 ft | 272 kts | 8° |
| 2026-05-05 14:18 | 51.40330 | 6.91964 | 5937 ft | 280 kts | 7° |
| 2026-05-05 14:19 | 51.42270 | 6.92414 | 6674 ft | 281 kts | 8° |
| 2026-05-05 14:19 | 51.44221 | 6.92905 | 7321 ft | 287 kts | 9° |